Torrance, CA

5:49 PM PST on February 12, 2016 (GMT -0800)
Zamperini | | Change Station
CLOSE
Current Station
Airport
Location: Torrance,
Elevation: 102 ft
Nearby Weather Stations
Active Advisory: High Surf Advisory

Elev 102 ft 33.80 °N, 118.34 °W | Updated 2 hours ago

Partly Cloudy
Partly Cloudy
70 °F
Feels Like 70 °F
N
17
Wind Variable Wind from WNW

Today
High -- | Low -- °F
--% Chance of Precip.
Yesterday
High -- | Low -- °F
Precip. -- in
Pressure 30.03 in
Visibility 10.0 miles
Clouds Few 18000 ft
Dew Point 61 °F
Humidity 73%
Rainfall 0.00 in
Snow Depth Not available.
6:41 AM 5:34 PM
Waxing Crescent, 25% visible
METAR KTOA 122347Z 30015KT 10SM FEW180 21/16 A3003
Pressure 30.03 in
Visibility 10.0 miles
Clouds Few 18000 ft
Dew Point 61 °F
Humidity 73%
Rainfall 0.00 in
Snow Depth Not available.
6:41 AM 5:34 PM
Waxing Crescent, 25% visible
METAR KTOA 122347Z 30015KT 10SM FEW180 21/16 A3003

10-Day Weather Forecast

Almanac

Astronomy

Feb. 12, 2016 Rise Set
Actual Time
Civil Twilight
Nautical Twilight
Astronomical Twilight
Moon
Length of Visible Light
Length of Day
Tomorrow will be .
, % of the Moon is Illuminated

Today's Extremes

State Highs State Lows

Community

WunderPhotos

Upload Photos

1,892,459 photos uploaded!

WunderBlog® & News

Nearby

Air Quality

  Air Quality AQ Index Pollutant
Not available.

Snow Depth

Station Depth Elevation

Earthquake Activity

City Distance Mag. Time & Date
Minimum magnitude displayed is 2.5.

Coastal Water Temperatures

Place Temperature

Stations

Nearby Weather Stations

Station Location Temp. Windchill Dew Point Humidity Wind Precip. Elev Updated Type
                   

Watches & Warnings

High Surf Advisory
Issued: 10:54 AM PST Feb. 12, 2016 – National Weather Service

... High surf advisory remains in effect until noon PST Sunday...

* surf and timing... surf will build to 7 to 10 feet through this
evening then gradually subside Saturday through Sunday.

* Impacts... the large surf may cause minor beach erosion and
strong rip currents that will create a risk of ocean drowning.
Sneaker waves can suddenly overrun previously dry beaches and
jetties around the time of high tide.

* Locations... surf will be highest on exposed west and northwest
facing beaches. Local sets to 12 feet are possible near
Ventura Harbor.

Precautionary/preparedness actions...

A high surf advisory means that high surf and rip currents will
make swimming and rock jetties dangerous.

Remember... if caught in a rip current... swim parallel to shore
until you are free of the powerful current. Always swim near a
lifeguard.